METAR AND TAF INFORMATION
METAR FOR OTHH
ADDS - METARS form results

(2134 UTC 20 February 2020)
Data provider http://aviationweather.gov/metar/data/
 
METAR text: OTHH 202100Z AUTO 34015KT CAVOK 20/12 Q1014 NOSIG
Conditions at: OTHH (DOHA HAMAD INTL , QA) observed 2100 UTC 20 February 2020
Temperature: 20.0°C (68°F)
Dewpoint: 12.0°C (54°F) [RH = 60%]
Pressure (altimeter): 29.94 inches Hg (1014.0 mb)
Winds: from the NNW (340 degrees) at 17 MPH (15 knots; 7.7 m/s)
Visibility: 6 or more miles (10+ km)
Ceiling: ceiling and visibility are OK
Clouds: unknown
Weather: no significant weather observed at this time

Forecast for: OTHH (DOHA HAMAD INTL , QA)
Text: TAF OTHH 201703Z 2018/2124 34015KT 8000 FEW035
Forecast period: 1800 UTC 20 February 2020 to 0000 UTC 22 February 2020
Forecast type: FROM: standard forecast or significant change
Winds: from the NNW (340 degrees) at 17 MPH (15 knots; 7.7 m/s)
Visibility: 5 miles (8 km)
Ceiling: at least 12,000 feet AGL
Clouds: few clouds at 3500 feet AGL
Weather: no significant weather forecast for this period
Text: PROB30
Forecast period: 1800 to 2300 UTC 20 February 2020
Forecast type: TEMPORARY: The following changes expected for less than half the time period
Visibility: 4 miles (6 km)
Ceiling: 12000 feet AGL
Clouds: few clouds at 3000 feet AGL
broken clouds at 12000 feet AGL
Weather: -RA  (light rain)

 AIRPORT MAP

 RUNWAY INFORMATION

 AIRPORT FREQUENCIES

 AIRPORT NEAR NAVIGATION AIDS



Powered by Virtual Airlines Manager [v2.6.2]